sensor_id;sensor_type;location;lat;lon;timestamp;pressure;altitude;pressure_sealevel;temperature;humidity
52949;BME280;38812;50.942;3.644;2023-08-07T00:01:30;101802.63;;;10.37;100.00
52949;BME280;38812;50.942;3.644;2023-08-07T00:03:55;101806.16;;;10.32;100.00
52949;BME280;38812;50.942;3.644;2023-08-07T00:06:20;101806.16;;;10.28;100.00
52949;BME280;38812;50.942;3.644;2023-08-07T00:08:46;101821.94;;;10.24;100.00
52949;BME280;38812;50.942;3.644;2023-08-07T00:11:11;101821.06;;;10.22;100.00
52949;BME280;38812;50.942;3.644;2023-08-07T00:13:37;101806.22;;;10.13;100.00
52949;BME280;38812;50.942;3.644;2023-08-07T00:16:02;101814.94;;;10.20;100.00
52949;BME280;38812;50.942;3.644;2023-08-07T00:18:28;101821.91;;;10.18;100.00
52949;BME280;38812;50.942;3.644;2023-08-07T00:20:54;101814.06;;;10.19;100.00
52949;BME280;38812;50.942;3.644;2023-08-07T00:23:20;101821.06;;;10.25;100.00
52949;BME280;38812;50.942;3.644;2023-08-07T00:25:45;101814.03;;;10.27;100.00
52949;BME280;38812;50.942;3.644;2023-08-07T00:28:10;101822.81;;;10.26;100.00
52949;BME280;38812;50.942;3.644;2023-08-07T00:30:36;101804.41;;;10.18;100.00
52949;BME280;38812;50.942;3.644;2023-08-07T00:33:01;101810.56;;;10.25;100.00
52949;BME280;38812;50.942;3.644;2023-08-07T00:35:28;101814.03;;;10.27;100.00
52949;BME280;38812;50.942;3.644;2023-08-07T00:37:53;101803.53;;;10.27;100.00
52949;BME280;38812;50.942;3.644;2023-08-07T00:40:18;101801.78;;;10.26;100.00
52949;BME280;38812;50.942;3.644;2023-08-07T00:42:44;101797.41;;;10.29;100.00
52949;BME280;38812;50.942;3.644;2023-08-07T00:45:09;101798.28;;;10.27;100.00
52949;BME280;38812;50.942;3.644;2023-08-07T00:47:35;101782.53;;;10.28;100.00
52949;BME280;38812;50.942;3.644;2023-08-07T00:50:03;101786.00;;;10.32;100.00
52949;BME280;38812;50.942;3.644;2023-08-07T00:52:30;101787.75;;;10.39;100.00
52949;BME280;38812;50.942;3.644;2023-08-07T00:54:56;101774.63;;;10.38;100.00
52949;BME280;38812;50.942;3.644;2023-08-07T00:57:21;101784.25;;;10.34;100.00
52949;BME280;38812;50.942;3.644;2023-08-07T00:59:48;101781.63;;;10.37;100.00
52949;BME280;38812;50.942;3.644;2023-08-07T01:02:14;101781.63;;;10.33;100.00
52949;BME280;38812;50.942;3.644;2023-08-07T01:04:40;101778.06;;;10.44;100.00
52949;BME280;38812;50.942;3.644;2023-08-07T01:07:06;101767.63;;;10.37;100.00
52949;BME280;38812;50.942;3.644;2023-08-07T01:09:32;101765.88;;;10.33;100.00
52949;BME280;38812;50.942;3.644;2023-08-07T01:17:15;101760.63;;;10.29;100.00
52949;BME280;38812;50.942;3.644;2023-08-07T01:19:41;101771.03;;;10.46;100.00
52949;BME280;38812;50.942;3.644;2023-08-07T01:22:09;101778.16;;;10.29;100.00
52949;BME280;38812;50.942;3.644;2023-08-07T01:24:35;101775.50;;;10.38;100.00
52949;BME280;38812;50.942;3.644;2023-08-07T01:29:56;101777.28;;;10.30;100.00
52949;BME280;38812;50.942;3.644;2023-08-07T01:34:58;101782.56;;;10.21;100.00
52949;BME280;38812;50.942;3.644;2023-08-07T01:37:27;101776.44;;;10.17;100.00
52949;BME280;38812;50.942;3.644;2023-08-07T01:39:54;101772.03;;;10.24;100.00
52949;BME280;38812;50.942;3.644;2023-08-07T01:42:21;101768.59;;;10.10;100.00
52949;BME280;38812;50.942;3.644;2023-08-07T01:44:46;101767.72;;;10.05;100.00
52949;BME280;38812;50.942;3.644;2023-08-07T01:47:12;101772.97;;;10.06;100.00
52949;BME280;38812;50.942;3.644;2023-08-07T01:49:37;101781.72;;;9.99;100.00
52949;BME280;38812;50.942;3.644;2023-08-07T01:52:04;101781.78;;;9.90;100.00
52949;BME280;38812;50.942;3.644;2023-08-07T01:54:29;101784.44;;;9.82;100.00
52949;BME280;38812;50.942;3.644;2023-08-07T01:56:55;101787.06;;;9.76;100.00
52949;BME280;38812;50.942;3.644;2023-08-07T01:59:20;101800.16;;;9.82;100.00
52949;BME280;38812;50.942;3.644;2023-08-07T02:01:45;101806.28;;;9.86;100.00
52949;BME280;38812;50.942;3.644;2023-08-07T02:04:11;101803.66;;;9.84;100.00
52949;BME280;38812;50.942;3.644;2023-08-07T02:06:36;101801.91;;;9.83;100.00
52949;BME280;38812;50.942;3.644;2023-08-07T02:09:01;101790.59;;;9.72;100.00
52949;BME280;38812;50.942;3.644;2023-08-07T02:11:27;101804.47;;;10.03;100.00
52949;BME280;38812;50.942;3.644;2023-08-07T02:13:52;101785.31;;;9.83;100.00
52949;BME280;38812;50.942;3.644;2023-08-07T02:16:17;101787.06;;;9.82;100.00
52949;BME280;38812;50.942;3.644;2023-08-07T02:18:43;101797.53;;;9.84;100.00
52949;BME280;38812;50.942;3.644;2023-08-07T02:21:08;101789.66;;;9.85;100.00
52949;BME280;38812;50.942;3.644;2023-08-07T02:23:33;101795.78;;;9.90;100.00
52949;BME280;38812;50.942;3.644;2023-08-07T02:25:59;101794.91;;;9.87;100.00
52949;BME280;38812;50.942;3.644;2023-08-07T02:28:25;101788.78;;;9.92;100.00
52949;BME280;38812;50.942;3.644;2023-08-07T02:30:50;101789.66;;;9.85;100.00
52949;BME280;38812;50.942;3.644;2023-08-07T02:33:16;101787.03;;;9.87;100.00
52949;BME280;38812;50.942;3.644;2023-08-07T02:35:42;101791.34;;;10.09;100.00
52949;BME280;38812;50.942;3.644;2023-08-07T02:38:07;101785.28;;;9.90;100.00
52949;BME280;38812;50.942;3.644;2023-08-07T02:40:32;101783.47;;;10.09;100.00
52949;BME280;38812;50.942;3.644;2023-08-07T02:42:58;101770.44;;;9.83;100.00
52949;BME280;38812;50.942;3.644;2023-08-07T02:45:23;101774.81;;;9.83;100.00
52949;BME280;38812;50.942;3.644;2023-08-07T02:47:48;101777.44;;;9.78;100.00
52949;BME280;38812;50.942;3.644;2023-08-07T02:50:14;101777.44;;;9.78;100.00
52949;BME280;38812;50.942;3.644;2023-08-07T02:52:39;101793.19;;;9.75;100.00
52949;BME280;38812;50.942;3.644;2023-08-07T02:55:05;101789.69;;;9.76;100.00
52949;BME280;38812;50.942;3.644;2023-08-07T02:57:30;101798.44;;;9.81;100.00
52949;BME280;38812;50.942;3.644;2023-08-07T02:59:56;101795.84;;;9.74;100.00
52949;BME280;38812;50.942;3.644;2023-08-07T03:02:21;101797.59;;;9.72;100.00
52949;BME280;38812;50.942;3.644;2023-08-07T03:04:47;101801.03;;;9.87;100.00
52949;BME280;38812;50.942;3.644;2023-08-07T03:07:12;101795.81;;;9.78;100.00
52949;BME280;38812;50.942;3.644;2023-08-07T03:09:37;101789.72;;;9.70;100.00
52949;BME280;38812;50.942;3.644;2023-08-07T03:12:03;101796.66;;;9.95;100.00
52949;BME280;38812;50.942;3.644;2023-08-07T03:14:29;101785.34;;;9.74;100.00
52949;BME280;38812;50.942;3.644;2023-08-07T03:16:55;101799.34;;;9.68;100.00
52949;BME280;38812;50.942;3.644;2023-08-07T03:19:20;101794.97;;;9.58;100.00
52949;BME280;38812;50.942;3.644;2023-08-07T03:21:46;101804.56;;;9.79;100.00
52949;BME280;38812;50.942;3.644;2023-08-07T03:24:12;101797.59;;;9.67;100.00
52949;BME280;38812;50.942;3.644;2023-08-07T03:26:37;101802.84;;;9.70;100.00
52949;BME280;38812;50.942;3.644;2023-08-07T03:29:03;101802.84;;;9.64;100.00
52949;BME280;38812;50.942;3.644;2023-08-07T03:31:28;101813.34;;;9.64;100.00
52949;BME280;38812;50.942;3.644;2023-08-07T03:33:53;101815.09;;;9.65;100.00
52949;BME280;38812;50.942;3.644;2023-08-07T03:36:19;101801.97;;;9.62;100.00
52949;BME280;38812;50.942;3.644;2023-08-07T03:38:44;101806.34;;;9.66;100.00
52949;BME280;38812;50.942;3.644;2023-08-07T03:41:09;101813.34;;;9.62;100.00
52949;BME280;38812;50.942;3.644;2023-08-07T03:43:35;101820.34;;;9.68;100.00
52949;BME280;38812;50.942;3.644;2023-08-07T03:46:00;101817.72;;;9.59;100.00
52949;BME280;38812;50.942;3.644;2023-08-07T03:48:26;101815.97;;;9.61;100.00
52949;BME280;38812;50.942;3.644;2023-08-07T03:50:51;101829.97;;;9.68;100.00
52949;BME280;38812;50.942;3.644;2023-08-07T03:53:17;101822.09;;;9.68;100.00
52949;BME280;38812;50.942;3.644;2023-08-07T03:55:42;101825.59;;;9.65;100.00
52949;BME280;38812;50.942;3.644;2023-08-07T03:58:10;101822.09;;;9.65;100.00
52949;BME280;38812;50.942;3.644;2023-08-07T04:00:35;101827.34;;;9.69;100.00
52949;BME280;38812;50.942;3.644;2023-08-07T04:03:01;101829.97;;;9.68;100.00
52949;BME280;38812;50.942;3.644;2023-08-07T04:05:26;101831.72;;;9.61;100.00
52949;BME280;38812;50.942;3.644;2023-08-07T04:07:51;101823.00;;;9.50;100.00
52949;BME280;38812;50.942;3.644;2023-08-07T04:10:17;101837.81;;;9.63;100.00
52949;BME280;38812;50.942;3.644;2023-08-07T04:12:42;101841.31;;;9.57;100.00
52949;BME280;38812;50.942;3.644;2023-08-07T04:15:08;101837.81;;;9.60;100.00
52949;BME280;38812;50.942;3.644;2023-08-07T04:17:35;101840.44;;;9.60;100.00
52949;BME280;38812;50.942;3.644;2023-08-07T04:20:00;101838.69;;;9.59;100.00
52949;BME280;38812;50.942;3.644;2023-08-07T04:22:25;101857.06;;;9.63;100.00
52949;BME280;38812;50.942;3.644;2023-08-07T04:24:51;101847.44;;;9.67;100.00
52949;BME280;38812;50.942;3.644;2023-08-07T04:27:16;101854.41;;;9.76;100.00
52949;BME280;38812;50.942;3.644;2023-08-07T04:29:42;101849.19;;;9.74;100.00
52949;BME280;38812;50.942;3.644;2023-08-07T04:32:07;101856.16;;;9.81;100.00
52949;BME280;38812;50.942;3.644;2023-08-07T04:34:32;101855.25;;;9.96;100.00
52949;BME280;38812;50.942;3.644;2023-08-07T04:36:58;101852.66;;;9.88;100.00
52949;BME280;38812;50.942;3.644;2023-08-07T04:39:23;101850.03;;;9.82;100.00
52949;BME280;38812;50.942;3.644;2023-08-07T04:41:49;101868.41;;;9.88;100.00
52949;BME280;38812;50.942;3.644;2023-08-07T04:44:17;101863.16;;;9.82;100.00
52949;BME280;38812;50.942;3.644;2023-08-07T04:46:42;101866.69;;;9.72;100.00
52949;BME280;38812;50.942;3.644;2023-08-07T04:49:07;101871.03;;;9.76;100.00
52949;BME280;38812;50.942;3.644;2023-08-07T04:51:33;101856.19;;;9.69;100.00
52949;BME280;38812;50.942;3.644;2023-08-07T04:53:58;101878.06;;;9.74;100.00
52949;BME280;38812;50.942;3.644;2023-08-07T04:56:24;101884.16;;;9.76;100.00
52949;BME280;38812;50.942;3.644;2023-08-07T04:58:49;101877.19;;;9.74;100.00
52949;BME280;38812;50.942;3.644;2023-08-07T05:01:14;101883.28;;;9.88;100.00
52949;BME280;38812;50.942;3.644;2023-08-07T05:03:40;101882.38;;;10.00;100.00
52949;BME280;38812;50.942;3.644;2023-08-07T05:06:06;101883.28;;;9.89;100.00
52949;BME280;38812;50.942;3.644;2023-08-07T05:08:31;101878.91;;;9.91;100.00
52949;BME280;38812;50.942;3.644;2023-08-07T05:10:56;101878.00;;;10.02;100.00
52949;BME280;38812;50.942;3.644;2023-08-07T05:13:22;101880.63;;;10.02;100.00
52949;BME280;38812;50.942;3.644;2023-08-07T05:15:48;101872.72;;;10.08;100.00
52949;BME280;38812;50.942;3.644;2023-08-07T05:18:14;101889.34;;;10.20;100.00
52949;BME280;38812;50.942;3.644;2023-08-07T05:20:39;101877.06;;;10.33;100.00
52949;BME280;38812;50.942;3.644;2023-08-07T05:23:05;101892.78;;;10.42;100.00
52949;BME280;38812;50.942;3.644;2023-08-07T05:25:30;101891.00;;;10.47;100.00
52949;BME280;38812;50.942;3.644;2023-08-07T05:27:56;101889.25;;;10.55;100.00
52949;BME280;38812;50.942;3.644;2023-08-07T05:30:21;101897.91;;;10.70;100.00
52949;BME280;38812;50.942;3.644;2023-08-07T05:32:47;101893.47;;;10.84;100.00
52949;BME280;38812;50.942;3.644;2023-08-07T05:35:12;101888.06;;;11.05;100.00
52949;BME280;38812;50.942;3.644;2023-08-07T05:37:38;101876.97;;;11.80;100.00
52949;BME280;38812;50.942;3.644;2023-08-07T05:40:04;101845.53;;;12.44;100.00
52949;BME280;38812;50.942;3.644;2023-08-07T05:42:30;101815.31;;;12.69;100.00
52949;BME280;38812;50.942;3.644;2023-08-07T05:44:55;101799.69;;;13.13;100.00
52949;BME280;38812;50.942;3.644;2023-08-07T05:47:20;101797.72;;;13.27;100.00
52949;BME280;38812;50.942;3.644;2023-08-07T05:49:46;101802.38;;;13.10;100.00
52949;BME280;38812;50.942;3.644;2023-08-07T05:52:11;101800.75;;;13.01;100.00
52949;BME280;38812;50.942;3.644;2023-08-07T05:54:36;101799.81;;;13.05;100.00
52949;BME280;38812;50.942;3.644;2023-08-07T05:57:02;101798.78;;;13.17;100.00
52949;BME280;38812;50.942;3.644;2023-08-07T05:59:27;101801.28;;;13.23;100.00
52949;BME280;38812;50.942;3.644;2023-08-07T06:01:53;101802.88;;;13.34;100.00
52949;BME280;38812;50.942;3.644;2023-08-07T06:04:20;101791.31;;;13.42;100.00
52949;BME280;38812;50.942;3.644;2023-08-07T06:06:46;101807.16;;;13.42;100.00
52949;BME280;38812;50.942;3.644;2023-08-07T06:09:11;101806.47;;;13.78;100.00
52949;BME280;38812;50.942;3.644;2023-08-07T06:11:37;101808.38;;;13.70;100.00
52949;BME280;38812;50.942;3.644;2023-08-07T06:14:03;101806.28;;;13.87;100.00
52949;BME280;38812;50.942;3.644;2023-08-07T06:16:28;101797.47;;;13.88;100.00
52949;BME280;38812;50.942;3.644;2023-08-07T06:18:54;101806.16;;;13.93;100.00
52949;BME280;38812;50.942;3.644;2023-08-07T06:21:19;101804.47;;;13.91;100.00
52949;BME280;38812;50.942;3.644;2023-08-07T06:23:48;101804.09;;;14.07;100.00
52949;BME280;38812;50.942;3.644;2023-08-07T06:26:13;101789.28;;;14.02;100.00
52949;BME280;38812;50.942;3.644;2023-08-07T06:28:38;101813.13;;;13.99;100.00
52949;BME280;38812;50.942;3.644;2023-08-07T06:31:06;101810.34;;;14.06;100.00
52949;BME280;38812;50.942;3.644;2023-08-07T06:33:32;101817.19;;;14.15;100.00
52949;BME280;38812;50.942;3.644;2023-08-07T06:36:04;101814.19;;;14.32;100.00
52949;BME280;38812;50.942;3.644;2023-08-07T06:38:30;101806.19;;;14.35;100.00
52949;BME280;38812;50.942;3.644;2023-08-07T06:40:56;101807.97;;;14.34;100.00
52949;BME280;38812;50.942;3.644;2023-08-07T06:43:21;101806.88;;;14.46;100.00
52949;BME280;38812;50.942;3.644;2023-08-07T06:45:49;101803.97;;;14.57;100.00
52949;BME280;38812;50.942;3.644;2023-08-07T06:48:14;101803.59;;;14.73;100.00
52949;BME280;38812;50.942;3.644;2023-08-07T06:50:40;101807.91;;;14.78;100.00
52949;BME280;38812;50.942;3.644;2023-08-07T06:53:05;101798.94;;;14.85;100.00
52949;BME280;38812;50.942;3.644;2023-08-07T06:55:31;101802.03;;;15.02;100.00
52949;BME280;38812;50.942;3.644;2023-08-07T06:57:56;101807.84;;;15.16;100.00
52949;BME280;38812;50.942;3.644;2023-08-07T07:00:21;101813.00;;;15.22;100.00
52949;BME280;38812;50.942;3.644;2023-08-07T07:02:47;101810.91;;;15.36;100.00
52949;BME280;38812;50.942;3.644;2023-08-07T07:05:12;101801.72;;;15.50;100.00
52949;BME280;38812;50.942;3.644;2023-08-07T07:07:38;101807.38;;;15.70;100.00
52949;BME280;38812;50.942;3.644;2023-08-07T07:10:04;101811.09;;;15.63;100.00
52949;BME280;38812;50.942;3.644;2023-08-07T07:12:29;101804.81;;;15.67;100.00
52949;BME280;38812;50.942;3.644;2023-08-07T07:14:55;101809.09;;;15.72;100.00
52949;BME280;38812;50.942;3.644;2023-08-07T07:17:20;101802.50;;;15.87;100.00
52949;BME280;38812;50.942;3.644;2023-08-07T07:19:46;101803.34;;;15.88;100.00
52949;BME280;38812;50.942;3.644;2023-08-07T07:22:11;101818.06;;;15.99;100.00
52949;BME280;38812;50.942;3.644;2023-08-07T07:24:37;101806.34;;;16.06;100.00
52949;BME280;38812;50.942;3.644;2023-08-07T07:27:02;101798.66;;;15.99;100.00
52949;BME280;38812;50.942;3.644;2023-08-07T07:29:28;101808.69;;;16.19;100.00
52949;BME280;38812;50.942;3.644;2023-08-07T07:31:53;101802.91;;;16.34;100.00
52949;BME280;38812;50.942;3.644;2023-08-07T07:34:20;101810.47;;;16.46;100.00
52949;BME280;38812;50.942;3.644;2023-08-07T07:36:45;101800.16;;;16.37;100.00
52949;BME280;38812;50.942;3.644;2023-08-07T07:39:11;101809.44;;;16.52;100.00
52949;BME280;38812;50.942;3.644;2023-08-07T07:41:36;101803.34;;;16.48;100.00
52949;BME280;38812;50.942;3.644;2023-08-07T07:44:02;101813.78;;;16.54;100.00
52949;BME280;38812;50.942;3.644;2023-08-07T07:46:28;101818.66;;;16.69;100.00
52949;BME280;38812;50.942;3.644;2023-08-07T07:48:53;101811.78;;;16.62;100.00
52949;BME280;38812;50.942;3.644;2023-08-07T07:51:18;101808.03;;;16.69;100.00
52949;BME280;38812;50.942;3.644;2023-08-07T07:53:44;101804.09;;;16.83;100.00
52949;BME280;38812;50.942;3.644;2023-08-07T07:56:09;101804.09;;;16.83;100.00
52949;BME280;38812;50.942;3.644;2023-08-07T07:58:35;101806.88;;;17.06;100.00
52949;BME280;38812;50.942;3.644;2023-08-07T08:01:00;101805.69;;;17.14;100.00
52949;BME280;38812;50.942;3.644;2023-08-07T08:03:26;101806.25;;;17.24;100.00
52949;BME280;38812;50.942;3.644;2023-08-07T08:05:52;101800.63;;;17.33;100.00
52949;BME280;38812;50.942;3.644;2023-08-07T08:08:17;101808.19;;;17.19;100.00
52949;BME280;38812;50.942;3.644;2023-08-07T08:10:44;101806.72;;;17.62;100.00
52949;BME280;38812;50.942;3.644;2023-08-07T08:13:10;101798.75;;;17.88;100.00
52949;BME280;38812;50.942;3.644;2023-08-07T08:15:36;101804.13;;;17.60;100.00
52949;BME280;38812;50.942;3.644;2023-08-07T08:18:01;101817.44;;;17.07;100.00
52949;BME280;38812;50.942;3.644;2023-08-07T08:20:27;101826.03;;;16.58;100.00
52949;BME280;38812;50.942;3.644;2023-08-07T08:22:52;101820.69;;;16.60;100.00
52949;BME280;38812;50.942;3.644;2023-08-07T08:25:17;101825.03;;;16.92;100.00
52949;BME280;38812;50.942;3.644;2023-08-07T08:27:43;101826.88;;;17.16;100.00
52949;BME280;38812;50.942;3.644;2023-08-07T08:30:09;101829.16;;;17.28;100.00
52949;BME280;38812;50.942;3.644;2023-08-07T08:32:34;101825.25;;;17.38;100.00
52949;BME280;38812;50.942;3.644;2023-08-07T08:35:00;101826.16;;;17.37;100.00
52949;BME280;38812;50.942;3.644;2023-08-07T08:37:25;101841.31;;;17.60;100.00
52949;BME280;38812;50.942;3.644;2023-08-07T08:39:51;101836.69;;;18.17;100.00
52949;BME280;38812;50.942;3.644;2023-08-07T08:42:16;101847.00;;;18.72;100.00
52949;BME280;38812;50.942;3.644;2023-08-07T08:44:53;101838.81;;;19.64;100.00
52949;BME280;38812;50.942;3.644;2023-08-07T08:47:21;101831.25;;;19.74;100.00
52949;BME280;38812;50.942;3.644;2023-08-07T08:49:49;101839.75;;;20.43;100.00
52949;BME280;38812;50.942;3.644;2023-08-07T08:52:16;101838.00;;;20.79;100.00
52949;BME280;38812;50.942;3.644;2023-08-07T08:54:43;101837.06;;;20.62;100.00
52949;BME280;38812;50.942;3.644;2023-08-07T08:57:09;101832.78;;;19.17;100.00
52949;BME280;38812;50.942;3.644;2023-08-07T08:59:34;101842.09;;;19.27;100.00
52949;BME280;38812;50.942;3.644;2023-08-07T09:02:00;101850.47;;;18.74;100.00
52949;BME280;38812;50.942;3.644;2023-08-07T09:04:25;101841.44;;;19.22;100.00
52949;BME280;38812;50.942;3.644;2023-08-07T09:06:51;101843.22;;;19.85;100.00
52949;BME280;38812;50.942;3.644;2023-08-07T09:09:19;101847.91;;;19.16;100.00
52949;BME280;38812;50.942;3.644;2023-08-07T09:11:45;101841.56;;;18.75;100.00
52949;BME280;38812;50.942;3.644;2023-08-07T09:14:24;101855.66;;;19.65;100.00
52949;BME280;38812;50.942;3.644;2023-08-07T09:16:53;101842.69;;;20.16;100.00
52949;BME280;38812;50.942;3.644;2023-08-07T09:19:19;101838.06;;;20.01;100.00
52949;BME280;38812;50.942;3.644;2023-08-07T09:21:44;101850.72;;;19.96;100.00
52949;BME280;38812;50.942;3.644;2023-08-07T09:24:10;101857.38;;;20.27;100.00
52949;BME280;38812;50.942;3.644;2023-08-07T09:26:37;101849.38;;;19.24;100.00
52949;BME280;38812;50.942;3.644;2023-08-07T09:29:03;101852.66;;;18.63;100.00
52949;BME280;38812;50.942;3.644;2023-08-07T09:31:29;101847.97;;;19.98;100.00
52949;BME280;38812;50.942;3.644;2023-08-07T09:34:01;101837.72;;;20.48;100.00
52949;BME280;38812;50.942;3.644;2023-08-07T09:36:29;101859.09;;;20.67;100.00
52949;BME280;38812;50.942;3.644;2023-08-07T09:38:54;101855.00;;;20.00;100.00
52949;BME280;38812;50.942;3.644;2023-08-07T09:41:20;101865.22;;;20.30;100.00
52949;BME280;38812;50.942;3.644;2023-08-07T09:43:46;101835.53;;;20.94;100.00
52949;BME280;38812;50.942;3.644;2023-08-07T09:46:12;101854.81;;;20.81;100.00
52949;BME280;38812;50.942;3.644;2023-08-07T09:48:42;101851.88;;;20.30;100.00
52949;BME280;38812;50.942;3.644;2023-08-07T09:51:07;101867.03;;;20.68;100.00
52949;BME280;38812;50.942;3.644;2023-08-07T09:53:33;101854.31;;;20.92;99.31
52949;BME280;38812;50.942;3.644;2023-08-07T09:55:59;101857.66;;;20.00;100.00
52949;BME280;38812;50.942;3.644;2023-08-07T09:58:24;101860.56;;;19.32;100.00
52949;BME280;38812;50.942;3.644;2023-08-07T10:00:50;101861.91;;;18.30;100.00
52949;BME280;38812;50.942;3.644;2023-08-07T10:03:19;101861.38;;;19.56;100.00
52949;BME280;38812;50.942;3.644;2023-08-07T10:05:44;101856.75;;;20.40;100.00
52949;BME280;38812;50.942;3.644;2023-08-07T10:08:11;101846.97;;;20.78;100.00
52949;BME280;38812;50.942;3.644;2023-08-07T10:10:38;101853.00;;;20.44;100.00
52949;BME280;38812;50.942;3.644;2023-08-07T10:13:04;101848.66;;;20.79;100.00
52949;BME280;38812;50.942;3.644;2023-08-07T10:15:31;101837.47;;;19.74;100.00
52949;BME280;38812;50.942;3.644;2023-08-07T10:17:56;101846.38;;;19.73;100.00
52949;BME280;38812;50.942;3.644;2023-08-07T10:20:24;101842.66;;;19.98;100.00
52949;BME280;38812;50.942;3.644;2023-08-07T10:22:52;101841.53;;;20.03;100.00
52949;BME280;38812;50.942;3.644;2023-08-07T10:25:21;101842.00;;;20.32;100.00
52949;BME280;38812;50.942;3.644;2023-08-07T10:27:48;101846.28;;;20.15;100.00
52949;BME280;38812;50.942;3.644;2023-08-07T10:30:15;101849.88;;;20.35;100.00
52949;BME280;38812;50.942;3.644;2023-08-07T10:32:43;101842.94;;;20.51;100.00
52949;BME280;38812;50.942;3.644;2023-08-07T10:35:09;101829.19;;;20.59;100.00
52949;BME280;38812;50.942;3.644;2023-08-07T10:37:43;101839.75;;;20.43;100.00
52949;BME280;38812;50.942;3.644;2023-08-07T10:40:10;101824.72;;;20.59;100.00
52949;BME280;38812;50.942;3.644;2023-08-07T10:45:21;101842.28;;;20.26;100.00
52949;BME280;38812;50.942;3.644;2023-08-07T10:48:20;101846.25;;;20.36;100.00
52949;BME280;38812;50.942;3.644;2023-08-07T10:51:06;101851.66;;;19.95;100.00
52949;BME280;38812;50.942;3.644;2023-08-07T10:53:35;101843.94;;;19.05;100.00
52949;BME280;38812;50.942;3.644;2023-08-07T10:56:02;101850.34;;;19.65;100.00
52949;BME280;38812;50.942;3.644;2023-08-07T10:58:35;101847.94;;;20.57;100.00
52949;BME280;38812;50.942;3.644;2023-08-07T11:03:49;101846.94;;;20.60;100.00
52949;BME280;38812;50.942;3.644;2023-08-07T11:06:16;101853.00;;;19.65;100.00
52949;BME280;38812;50.942;3.644;2023-08-07T11:08:41;101853.06;;;19.41;100.00
52949;BME280;38812;50.942;3.644;2023-08-07T11:11:07;101857.66;;;20.00;100.00
52949;BME280;38812;50.942;3.644;2023-08-07T11:13:33;101854.88;;;20.61;100.00
52949;BME280;38812;50.942;3.644;2023-08-07T11:15:59;101850.81;;;20.34;100.00
52949;BME280;38812;50.942;3.644;2023-08-07T11:18:25;101853.59;;;20.51;100.00
52949;BME280;38812;50.942;3.644;2023-08-07T11:20:53;101851.72;;;20.53;100.00
52949;BME280;38812;50.942;3.644;2023-08-07T11:23:27;101852.31;;;20.78;100.00
52949;BME280;38812;50.942;3.644;2023-08-07T11:25:54;101857.47;;;20.81;100.00
52949;BME280;38812;50.942;3.644;2023-08-07T11:28:20;101856.06;;;19.96;100.00
52949;BME280;38812;50.942;3.644;2023-08-07T11:30:49;101858.31;;;19.01;100.00
52949;BME280;38812;50.942;3.644;2023-08-07T11:33:15;101854.84;;;18.52;100.00
52949;BME280;38812;50.942;3.644;2023-08-07T11:35:42;101861.69;;;19.90;100.00
52949;BME280;38812;50.942;3.644;2023-08-07T11:38:07;101853.66;;;20.68;100.00
52949;BME280;38812;50.942;3.644;2023-08-07T11:40:33;101850.28;;;20.26;100.00
52949;BME280;38812;50.942;3.644;2023-08-07T11:42:59;101845.75;;;20.28;100.00
52949;BME280;38812;50.942;3.644;2023-08-07T11:45:24;101848.63;;;20.62;100.00
52949;BME280;38812;50.942;3.644;2023-08-07T11:47:49;101839.00;;;20.96;97.67
52949;BME280;38812;50.942;3.644;2023-08-07T11:50:15;101839.63;;;21.01;100.00
52949;BME280;38812;50.942;3.644;2023-08-07T11:52:40;101833.78;;;20.36;100.00
52949;BME280;38812;50.942;3.644;2023-08-07T11:55:06;101827.84;;;21.05;100.00
52949;BME280;38812;50.942;3.644;2023-08-07T11:57:34;101827.06;;;21.03;100.00
52949;BME280;38812;50.942;3.644;2023-08-07T11:59:59;101837.09;;;21.16;100.00
52949;BME280;38812;50.942;3.644;2023-08-07T12:02:25;101834.16;;;20.29;100.00
52949;BME280;38812;50.942;3.644;2023-08-07T12:04:50;101833.53;;;19.63;100.00
52949;BME280;38812;50.942;3.644;2023-08-07T12:07:19;101838.91;;;19.19;100.00
52949;BME280;38812;50.942;3.644;2023-08-07T12:09:48;101829.91;;;19.43;100.00
52949;BME280;38812;50.942;3.644;2023-08-07T12:12:13;101840.34;;;19.90;100.00
52949;BME280;38812;50.942;3.644;2023-08-07T12:14:39;101836.25;;;19.19;100.00
52949;BME280;38812;50.942;3.644;2023-08-07T12:17:05;101837.13;;;18.98;100.00
52949;BME280;38812;50.942;3.644;2023-08-07T12:19:37;101836.88;;;19.88;100.00
52949;BME280;38812;50.942;3.644;2023-08-07T12:22:06;101832.13;;;19.32;100.00
52949;BME280;38812;50.942;3.644;2023-08-07T12:24:32;101836.59;;;18.66;100.00
52949;BME280;38812;50.942;3.644;2023-08-07T12:26:57;101836.47;;;18.69;100.00
52949;BME280;38812;50.942;3.644;2023-08-07T12:29:23;101830.16;;;18.72;100.00
52949;BME280;38812;50.942;3.644;2023-08-07T12:31:49;101832.31;;;18.62;100.00
52949;BME280;38812;50.942;3.644;2023-08-07T12:34:15;101830.44;;;18.41;100.00
52949;BME280;38812;50.942;3.644;2023-08-07T12:36:41;101826.28;;;19.02;100.00
52949;BME280;38812;50.942;3.644;2023-08-07T12:39:07;101828.03;;;19.67;100.00
52949;BME280;38812;50.942;3.644;2023-08-07T12:41:32;101825.34;;;20.27;100.00
52949;BME280;38812;50.942;3.644;2023-08-07T12:43:57;101802.97;;;20.10;100.00
52949;BME280;38812;50.942;3.644;2023-08-07T12:46:26;101824.38;;;19.48;100.00
52949;BME280;38812;50.942;3.644;2023-08-07T12:48:51;101813.59;;;20.31;100.00
52949;BME280;38812;50.942;3.644;2023-08-07T12:51:17;101822.56;;;20.67;100.00
52949;BME280;38812;50.942;3.644;2023-08-07T12:53:42;101815.44;;;20.68;100.00